Hinton, West Virginia
Current Conditions -  °F | °C
As of 10:19 PM on Monday 26 Jan 2015 (Local Time) from KBKW Reporting Station
Overcast Overcast  
Wind Chill: 10°   Ceiling: 600
Heat Index: 22°   Visibility: 8mi
Dew Point: 19°   Wind: 12mph
Humidity: 89%   Direction: 300°WNW
Pressure: 29.79"   Gusts: NA
Location:  37.67°N, 80.89°W
Report Text: KBKW 270319Z AUTO 30010KT 8SM BKN006 OVC011 M06/M07 A2979 RMK AO2 T10561072
Loading
Personal Weather Stations






























Interactive Weather Map New forecast layout! Learn more

10-Day Weather Forecast

Advertisements
Track Severe Weather on mobile